Aviation Digital Data Service (ADDS)

Output produced by METARs form (2115 UTC 20 August 2019)
found at http://www.aviationweather.gov/metar/data/
 
Forecast for: LYPG (PODGORICA(TITOGR, CS)
Text: TAF LYPG 201700Z 2018/2118 16005KT CAVOK TX36/2114Z TN22/2104Z
Forecast period: 1800 UTC 20 August 2019 to 1800 UTC 21 August 2019
Forecast type: FROM: standard forecast or significant change
Winds: from the SSE (160 degrees) at 6 MPH (5 knots; 2.6 m/s)
Visibility: 6 or more miles 10+ km)
Ceiling: unknown
Clouds: missing
Weather: no significant weather forecast for this period